createdAt,value
2022-07-30T00:00:29.607Z,17.16
2022-07-30T00:03:00.143Z,17.24
2022-07-30T00:05:30.004Z,17.32
2022-07-30T00:07:58.273Z,17.26
2022-07-30T00:10:26.514Z,17.27
2022-07-30T00:13:01.370Z,17.23
2022-07-30T00:15:35.027Z,17.19
2022-07-30T00:18:04.851Z,17.19
2022-07-30T00:20:33.491Z,17.17
2022-07-30T00:23:04.915Z,17.21
2022-07-30T00:25:33.295Z,17.13
2022-07-30T00:28:01.637Z,17.14
2022-07-30T00:30:29.786Z,17.04
2022-07-30T00:33:00.641Z,17.06
2022-07-30T00:35:30.443Z,17.07
2022-07-30T00:37:58.657Z,16.87
2022-07-30T00:40:26.841Z,16.77
2022-07-30T00:43:04.065Z,16.75
2022-07-30T00:45:32.155Z,16.73
2022-07-30T00:48:01.696Z,16.77
2022-07-30T00:50:32.685Z,16.72
2022-07-30T00:53:00.977Z,16.73
2022-07-30T00:55:29.016Z,16.72
2022-07-30T00:57:57.034Z,16.68
2022-07-30T01:00:25.137Z,16.71
2022-07-30T01:02:53.195Z,16.61
2022-07-30T01:05:21.526Z,16.64
2022-07-30T01:07:51.736Z,16.67
2022-07-30T01:10:19.797Z,16.60
2022-07-30T01:12:55.801Z,16.57
2022-07-30T01:15:23.877Z,16.61
2022-07-30T01:17:53.261Z,16.58
2022-07-30T01:20:25.968Z,16.55
2022-07-30T01:22:59.745Z,16.59
2022-07-30T01:25:47.765Z,16.58
2022-07-30T01:28:19.015Z,16.49
2022-07-30T01:30:47.172Z,16.49
2022-07-30T01:33:19.205Z,16.52
2022-07-30T01:36:02.069Z,16.40
2022-07-30T01:38:35.002Z,16.37
2022-07-30T01:41:05.226Z,16.35
2022-07-30T01:43:34.619Z,16.31
2022-07-30T01:46:13.571Z,16.22
2022-07-30T01:48:42.728Z,16.29
2022-07-30T01:51:11.818Z,16.28
2022-07-30T01:53:41.858Z,16.22
2022-07-30T01:56:13.584Z,16.20
2022-07-30T01:58:45.496Z,16.08
2022-07-30T02:01:13.673Z,16.13
2022-07-30T02:03:41.988Z,16.03
2022-07-30T02:06:13.283Z,15.99
2022-07-30T02:09:36.387Z,15.93
2022-07-30T02:12:24.602Z,15.96
2022-07-30T02:14:56.607Z,15.91
2022-07-30T02:17:30.429Z,15.98
2022-07-30T02:20:07.904Z,16.05
2022-07-30T02:22:40.015Z,16.01
2022-07-30T02:25:10.747Z,15.96
2022-07-30T02:27:41.487Z,16.00
2022-07-30T02:30:11.137Z,15.99
2022-07-30T02:32:40.719Z,16.04
2022-07-30T02:35:16.657Z,15.98
2022-07-30T02:37:54.051Z,15.99
2022-07-30T02:40:22.967Z,15.88
2022-07-30T02:42:55.048Z,15.85
2022-07-30T02:45:25.289Z,15.79
2022-07-30T02:47:55.644Z,15.66
2022-07-30T02:50:42.108Z,15.63
2022-07-30T02:53:13.329Z,15.45
2022-07-30T02:55:42.653Z,15.53
2022-07-30T02:58:12.993Z,15.56
2022-07-30T03:00:41.899Z,15.50
2022-07-30T03:03:10.529Z,15.38
2022-07-30T03:05:50.543Z,15.41
2022-07-30T03:08:23.755Z,15.46
2022-07-30T03:10:53.142Z,15.42
2022-07-30T03:13:23.656Z,15.47
2022-07-30T03:15:53.230Z,15.46
2022-07-30T03:18:21.958Z,15.46
2022-07-30T03:20:53.147Z,15.28
2022-07-30T03:23:21.625Z,15.14
2022-07-30T03:25:57.586Z,15.09
2022-07-30T03:28:34.889Z,15.08
2022-07-30T03:31:03.157Z,15.03
2022-07-30T03:33:38.220Z,14.92
2022-07-30T03:36:16.910Z,15.03
2022-07-30T03:38:45.508Z,15.07
2022-07-30T03:41:14.395Z,15.03
2022-07-30T03:43:50.090Z,15.00
2022-07-30T03:46:18.893Z,15.15
2022-07-30T03:48:50.461Z,15.23
2022-07-30T03:51:18.785Z,15.32
2022-07-30T03:53:47.073Z,15.38
2022-07-30T03:56:21.431Z,15.39
2022-07-30T03:58:57.594Z,15.41
2022-07-30T04:01:26.695Z,15.53
2022-07-30T04:03:59.374Z,15.54
2022-07-30T04:06:30.611Z,15.52
2022-07-30T04:09:02.621Z,15.55
2022-07-30T04:11:41.419Z,15.53
2022-07-30T04:14:16.089Z,15.58
2022-07-30T04:16:53.796Z,15.66
2022-07-30T04:19:32.334Z,15.80
2022-07-30T04:22:08.066Z,15.80
2022-07-30T04:24:37.109Z,15.86
2022-07-30T04:27:08.528Z,15.83
2022-07-30T04:29:45.008Z,15.87
2022-07-30T04:32:23.170Z,15.93
2022-07-30T04:34:53.056Z,15.92
2022-07-30T04:37:28.366Z,15.97
2022-07-30T04:39:57.967Z,15.88
2022-07-30T04:42:29.810Z,15.93
2022-07-30T04:45:02.451Z,15.98
2022-07-30T04:47:30.667Z,15.96
2022-07-30T04:50:02.583Z,15.93
2022-07-30T04:52:31.255Z,15.94
2022-07-30T04:55:05.942Z,15.96
2022-07-30T04:57:40.727Z,15.97
2022-07-30T05:00:13.690Z,15.87
2022-07-30T05:02:42.804Z,15.91
2022-07-30T05:05:12.682Z,16.06
2022-07-30T05:07:48.998Z,15.99
2022-07-30T05:10:20.794Z,15.93
2022-07-30T05:12:49.082Z,15.89
2022-07-30T05:15:20.109Z,15.81
2022-07-30T05:17:51.781Z,15.88
2022-07-30T05:20:21.398Z,15.85
2022-07-30T05:22:51.170Z,15.95
2022-07-30T05:25:19.568Z,16.05
2022-07-30T05:27:47.750Z,15.98
2022-07-30T05:30:15.908Z,16.17
2022-07-30T05:32:46.468Z,15.93
2022-07-30T05:35:15.643Z,16.15
2022-07-30T05:37:43.788Z,16.17
2022-07-30T05:40:18.710Z,16.22
2022-07-30T05:42:46.918Z,16.17
2022-07-30T05:45:15.408Z,16.23
2022-07-30T05:47:43.638Z,16.10
2022-07-30T05:50:24.725Z,16.10
2022-07-30T05:52:53.248Z,16.00
2022-07-30T05:55:21.538Z,16.04
2022-07-30T05:57:49.778Z,16.26
2022-07-30T06:00:19.582Z,16.40
2022-07-30T06:02:47.802Z,16.55
2022-07-30T06:05:16.143Z,16.60
2022-07-30T06:07:46.099Z,16.62
2022-07-30T06:10:18.139Z,16.64
2022-07-30T06:12:48.659Z,16.58
2022-07-30T06:15:26.497Z,16.50
2022-07-30T06:18:02.234Z,16.64
2022-07-30T06:20:33.678Z,16.51
2022-07-30T06:23:11.988Z,16.58
2022-07-30T06:25:45.491Z,16.79
2022-07-30T06:28:36.018Z,16.81
2022-07-30T06:31:02.743Z,17.01
2022-07-30T06:33:38.585Z,17.26
2022-07-30T06:36:14.054Z,17.40
2022-07-30T06:38:44.019Z,17.31
2022-07-30T06:41:25.994Z,17.53
2022-07-30T06:44:02.520Z,17.49
2022-07-30T06:46:30.935Z,17.67
2022-07-30T06:49:04.843Z,17.77
2022-07-30T06:51:51.632Z,17.87
2022-07-30T06:54:33.825Z,18.11
2022-07-30T06:57:11.560Z,18.03
2022-07-30T06:59:56.687Z,18.12
2022-07-30T07:02:35.736Z,18.01
2022-07-30T07:05:13.861Z,18.14
2022-07-30T07:07:58.339Z,18.10
2022-07-30T07:10:35.850Z,18.21
2022-07-30T07:13:07.300Z,18.34
2022-07-30T07:15:37.523Z,18.68
2022-07-30T07:18:16.820Z,18.81
2022-07-30T07:20:46.852Z,18.77
2022-07-30T07:23:38.999Z,18.73
2022-07-30T07:26:11.929Z,18.86
2022-07-30T07:28:51.328Z,18.61
2022-07-30T07:32:04.505Z,18.59
2022-07-30T07:34:26.012Z,18.58
2022-07-30T07:46:03.325Z,19.69
2022-07-30T07:48:45.721Z,20.26
2022-07-30T07:54:30.028Z,20.84
2022-07-30T07:57:15.502Z,20.50
2022-07-30T08:00:16.394Z,20.31
2022-07-30T08:32:08.057Z,19.71
2022-07-30T08:35:08.082Z,20.18
2022-07-30T09:00:00.735Z,21.84
2022-07-30T09:15:20.735Z,21.87
2022-07-30T09:46:18.006Z,21.90
2022-07-30T09:53:00.380Z,22.23
2022-07-30T09:55:47.300Z,22.72
2022-07-30T09:58:27.047Z,22.84
2022-07-30T10:01:04.138Z,22.64
2022-07-30T10:03:48.749Z,22.78
2022-07-30T10:06:56.088Z,23.11
2022-07-30T10:09:49.004Z,22.39
2022-07-30T10:12:42.085Z,22.36
2022-07-30T10:15:48.948Z,22.19
2022-07-30T10:24:33.828Z,22.46
2022-07-30T10:27:34.555Z,22.43
2022-07-30T10:45:32.193Z,22.18
2022-07-30T10:48:10.342Z,22.68
2022-07-30T10:51:18.644Z,23.16
2022-07-30T12:45:06.579Z,26.29
2022-07-30T13:40:15.179Z,32.57
2022-07-30T14:14:47.991Z,35.19
2022-07-30T14:17:56.862Z,31.71
2022-07-30T14:20:36.581Z,29.06
2022-07-30T14:23:33.893Z,29.05
2022-07-30T14:26:15.572Z,27.52
2022-07-30T14:28:51.408Z,25.97
2022-07-30T14:31:21.019Z,25.31
2022-07-30T14:33:52.656Z,24.55
2022-07-30T14:36:23.626Z,24.12
2022-07-30T14:39:01.923Z,23.79
2022-07-30T14:48:02.437Z,24.12
2022-07-30T14:51:03.449Z,24.59
2022-07-30T14:53:50.572Z,25.92
2022-07-30T14:56:28.139Z,26.14
2022-07-30T15:02:28.130Z,24.93
2022-07-30T15:04:59.972Z,23.92
2022-07-30T15:07:38.321Z,23.60
2022-07-30T15:10:19.786Z,23.35
2022-07-30T15:13:01.119Z,23.09
2022-07-30T15:15:41.749Z,22.87
2022-07-30T15:18:23.441Z,22.68
2022-07-30T15:20:57.982Z,22.40
2022-07-30T15:23:31.171Z,21.11
2022-07-30T15:25:59.438Z,18.38
2022-07-30T15:28:28.966Z,17.13
2022-07-30T15:31:09.198Z,16.98
2022-07-30T15:33:45.527Z,17.00
2022-07-30T15:36:15.147Z,17.17
2022-07-30T15:38:49.868Z,17.23
2022-07-30T15:41:29.766Z,17.32
2022-07-30T15:44:03.139Z,17.40
2022-07-30T15:46:41.339Z,17.39
2022-07-30T15:49:15.711Z,17.59
2022-07-30T15:51:52.520Z,17.63
2022-07-30T15:54:34.055Z,17.76
2022-07-30T15:57:13.727Z,17.75
2022-07-30T15:59:44.338Z,17.69
2022-07-30T16:02:18.394Z,17.81
2022-07-30T16:04:51.555Z,17.75
2022-07-30T16:07:37.114Z,17.91
2022-07-30T16:10:09.284Z,18.05
2022-07-30T16:12:47.643Z,18.20
2022-07-30T16:15:26.788Z,18.39
2022-07-30T16:18:02.052Z,18.52
2022-07-30T16:20:34.391Z,18.57
2022-07-30T16:23:12.016Z,18.61
2022-07-30T16:25:42.796Z,18.56
2022-07-30T16:28:15.603Z,18.51
2022-07-30T16:30:50.976Z,18.55
2022-07-30T16:36:28.784Z,18.79
2022-07-30T16:39:09.469Z,19.00
2022-07-30T16:41:45.102Z,19.26
2022-07-30T16:44:21.466Z,19.32
2022-07-30T16:46:50.063Z,19.50
2022-07-30T16:49:21.106Z,19.55
2022-07-30T16:51:56.575Z,19.46
2022-07-30T16:54:34.638Z,19.62
2022-07-30T16:57:19.587Z,19.75
2022-07-30T16:59:51.137Z,19.73
2022-07-30T17:02:25.355Z,19.50
2022-07-30T17:04:54.134Z,19.24
2022-07-30T17:07:30.327Z,19.15
2022-07-30T17:10:06.346Z,19.19
2022-07-30T17:12:50.751Z,19.20
2022-07-30T17:15:19.858Z,19.03
2022-07-30T17:17:53.027Z,18.88
2022-07-30T17:20:30.424Z,18.74
2022-07-30T17:23:01.438Z,18.58
2022-07-30T17:25:57.619Z,18.48
2022-07-30T17:28:31.493Z,18.47
2022-07-30T17:30:59.903Z,18.35
2022-07-30T17:33:35.726Z,18.28
2022-07-30T17:36:10.932Z,18.41
2022-07-30T17:38:41.331Z,18.37
2022-07-30T17:41:13.657Z,18.50
2022-07-30T17:43:57.048Z,18.50
2022-07-30T17:46:31.118Z,18.61
2022-07-30T17:49:02.415Z,18.68
2022-07-30T17:51:31.492Z,18.72
2022-07-30T17:54:01.863Z,18.81
2022-07-30T17:56:35.583Z,18.84
2022-07-30T17:59:04.039Z,18.86
2022-07-30T18:01:35.786Z,18.89
2022-07-30T18:04:04.358Z,18.87
2022-07-30T18:06:41.259Z,18.81
2022-07-30T18:09:20.758Z,18.74
2022-07-30T18:11:57.518Z,18.66
2022-07-30T18:14:39.588Z,18.66
2022-07-30T18:17:14.124Z,18.62
2022-07-30T18:19:51.318Z,18.58
2022-07-30T18:22:29.093Z,18.56
2022-07-30T18:25:01.008Z,18.48
2022-07-30T18:27:33.679Z,18.34
2022-07-30T18:30:02.491Z,18.22
2022-07-30T18:32:33.860Z,18.05
2022-07-30T18:35:05.040Z,17.96
2022-07-30T18:37:40.128Z,17.90
2022-07-30T18:40:10.884Z,17.75
2022-07-30T18:42:40.608Z,17.73
2022-07-30T18:45:13.322Z,17.69
2022-07-30T18:47:44.343Z,17.70
2022-07-30T18:50:13.492Z,17.71
2022-07-30T18:52:42.351Z,17.76
2022-07-30T18:55:12.698Z,17.73
2022-07-30T18:57:42.802Z,17.78
2022-07-30T19:00:34.171Z,17.69
2022-07-30T19:03:08.189Z,17.63
2022-07-30T19:05:41.742Z,17.72
2022-07-30T19:08:15.211Z,17.56
2022-07-30T19:10:43.994Z,17.64
2022-07-30T19:13:15.177Z,17.64
2022-07-30T19:15:43.968Z,17.59
2022-07-30T19:18:15.620Z,17.60
2022-07-30T19:20:44.824Z,17.65
2022-07-30T19:23:18.693Z,17.63
2022-07-30T19:25:48.486Z,17.59
2022-07-30T19:28:18.229Z,17.53
2022-07-30T19:30:46.551Z,17.58
2022-07-30T19:33:18.931Z,17.48
2022-07-30T19:35:48.039Z,17.49
2022-07-30T19:38:22.209Z,17.52
2022-07-30T19:40:59.679Z,17.45
2022-07-30T19:43:39.389Z,17.47
2022-07-30T19:46:08.168Z,17.41
2022-07-30T19:48:40.338Z,17.33
2022-07-30T19:54:03.455Z,17.37
2022-07-30T19:56:36.223Z,17.38
2022-07-30T19:59:15.139Z,17.34
2022-07-30T20:01:43.944Z,17.36
2022-07-30T20:04:14.289Z,17.40
2022-07-30T20:06:46.207Z,17.38
2022-07-30T20:09:16.412Z,17.40
2022-07-30T20:11:47.875Z,17.39
2022-07-30T20:14:23.013Z,17.35
2022-07-30T20:16:51.591Z,17.38
2022-07-30T20:19:20.300Z,17.41
2022-07-30T20:21:56.790Z,17.34
2022-07-30T20:24:31.081Z,17.30
2022-07-30T20:26:59.859Z,17.31
2022-07-30T20:29:29.633Z,17.34
2022-07-30T20:31:59.475Z,17.29
2022-07-30T20:34:27.807Z,17.23
2022-07-30T20:36:57.704Z,17.19
2022-07-30T20:39:42.084Z,17.18
2022-07-30T20:42:12.287Z,17.07
2022-07-30T20:44:49.314Z,17.04
2022-07-30T20:47:34.274Z,16.97
2022-07-30T20:50:11.491Z,16.90
2022-07-30T20:52:48.226Z,16.81
2022-07-30T20:55:22.525Z,16.76
2022-07-30T20:58:01.357Z,16.62
2022-07-30T21:00:49.430Z,16.59
2022-07-30T21:03:21.256Z,16.55
2022-07-30T21:05:52.412Z,16.43
2022-07-30T21:08:25.543Z,16.36
2022-07-30T21:10:57.569Z,16.20
2022-07-30T21:13:28.698Z,16.18
2022-07-30T21:16:03.521Z,16.23
2022-07-30T21:18:33.084Z,16.12
2022-07-30T21:21:05.504Z,16.14
2022-07-30T21:23:35.673Z,15.93
2022-07-30T21:26:13.280Z,15.84
2022-07-30T21:28:42.307Z,15.80
2022-07-30T21:31:15.326Z,15.75
2022-07-30T21:33:46.242Z,15.80
2022-07-30T21:36:14.943Z,15.75
2022-07-30T21:38:48.370Z,15.70
2022-07-30T21:41:21.097Z,15.77
2022-07-30T21:44:09.929Z,15.71
2022-07-30T21:46:40.723Z,15.69
2022-07-30T21:49:10.319Z,15.69
2022-07-30T21:51:42.350Z,15.59
2022-07-30T21:54:15.838Z,15.56
2022-07-30T21:56:47.537Z,15.54
2022-07-30T21:59:19.017Z,15.51
2022-07-30T22:01:59.225Z,15.48
2022-07-30T22:04:31.361Z,15.51
2022-07-30T22:07:01.848Z,15.53
2022-07-30T22:09:34.232Z,15.50
2022-07-30T22:12:09.265Z,15.43
2022-07-30T22:14:41.544Z,15.32
2022-07-30T22:20:03.632Z,15.20
2022-07-30T22:22:36.296Z,15.19
2022-07-30T22:25:12.270Z,15.26
2022-07-30T22:27:56.351Z,15.08
2022-07-30T22:30:29.782Z,15.06
2022-07-30T22:33:13.194Z,15.08
2022-07-30T22:35:49.694Z,14.99
2022-07-30T22:38:20.211Z,15.04
2022-07-30T22:40:50.476Z,14.90
2022-07-30T22:43:21.735Z,14.83
2022-07-30T22:45:53.470Z,14.81
2022-07-30T22:48:27.486Z,14.74
2022-07-30T22:51:00.167Z,14.74
2022-07-30T22:54:03.613Z,14.70
2022-07-30T22:56:23.958Z,14.76
2022-07-30T22:58:52.801Z,14.59
2022-07-30T23:01:24.309Z,14.65
2022-07-30T23:03:54.207Z,14.57
2022-07-30T23:06:23.194Z,14.62
2022-07-30T23:08:51.683Z,14.51
2022-07-30T23:11:21.339Z,14.52
2022-07-30T23:12:17.197Z,17.41
2022-07-30T23:12:33.211Z,15.27
2022-07-30T23:13:55.974Z,14.56
2022-07-30T23:16:39.111Z,14.47
2022-07-30T23:19:14.033Z,14.40
2022-07-30T23:21:53.885Z,14.40
2022-07-30T23:24:22.453Z,14.41
2022-07-30T23:26:53.872Z,14.40
2022-07-30T23:29:25.315Z,14.42
2022-07-30T23:31:53.957Z,14.37
2022-07-30T23:34:24.156Z,14.34
2022-07-30T23:36:55.820Z,14.41
2022-07-30T23:39:25.090Z,14.29
2022-07-30T23:41:55.403Z,14.35
2022-07-30T23:44:23.972Z,14.24
2022-07-30T23:46:52.582Z,14.23
2022-07-30T23:49:26.736Z,14.19
2022-07-30T23:51:55.717Z,14.17
2022-07-30T23:54:25.654Z,14.17
2022-07-30T23:56:56.284Z,13.92
2022-07-30T23:59:40.848Z,14.16
